sensor_id;sensor_type;location;lat;lon;timestamp;pressure;altitude;pressure_sealevel;temperature;humidity
67842;BME280;54642;59.126;37.876;2022-11-15T00:00:04;100604.59;;;-0.13;64.54
67842;BME280;54642;59.126;37.876;2022-11-15T00:02:49;100600.38;;;-0.12;64.55
67842;BME280;54642;59.126;37.876;2022-11-15T00:05:36;100595.13;;;-0.15;64.77
67842;BME280;54642;59.126;37.876;2022-11-15T00:08:20;100591.50;;;-0.21;64.70
67842;BME280;54642;59.126;37.876;2022-11-15T00:11:05;100606.94;;;-0.17;64.73
67842;BME280;54642;59.126;37.876;2022-11-15T00:13:49;100569.03;;;-0.47;64.66
67842;BME280;54642;59.126;37.876;2022-11-15T00:16:34;100588.72;;;-0.25;64.81
67842;BME280;54642;59.126;37.876;2022-11-15T00:19:18;100579.63;;;-0.38;64.85
67842;BME280;54642;59.126;37.876;2022-11-15T00:22:02;100604.59;;;-0.31;64.78
67842;BME280;54642;59.126;37.876;2022-11-15T00:24:47;100586.75;;;-0.31;65.13
67842;BME280;54642;59.126;37.876;2022-11-15T00:27:31;100578.09;;;-0.34;64.88
67842;BME280;54642;59.126;37.876;2022-11-15T00:30:16;100573.00;;;-0.34;65.11
67842;BME280;54642;59.126;37.876;2022-11-15T00:33:04;100568.59;;;-0.39;65.50
67842;BME280;54642;59.126;37.876;2022-11-15T00:35:49;100572.81;;;-0.39;65.21
67842;BME280;54642;59.126;37.876;2022-11-15T00:38:34;100540.00;;;-0.51;65.21
67842;BME280;54642;59.126;37.876;2022-11-15T00:41:19;100534.31;;;-0.45;65.25
67842;BME280;54642;59.126;37.876;2022-11-15T00:44:03;100551.84;;;-0.33;65.43
67842;BME280;54642;59.126;37.876;2022-11-15T00:46:48;100547.63;;;-0.33;65.60
67842;BME280;54642;59.126;37.876;2022-11-15T00:49:32;100528.50;;;-0.43;65.47
67842;BME280;54642;59.126;37.876;2022-11-15T00:52:17;100546.09;;;-0.29;65.16
67842;BME280;54642;59.126;37.876;2022-11-15T00:55:01;100532.66;;;-0.27;65.53
67842;BME280;54642;59.126;37.876;2022-11-15T00:57:46;100517.13;;;-0.31;65.44
67842;BME280;54642;59.126;37.876;2022-11-15T01:00:30;100504.06;;;-0.39;65.76
67842;BME280;54642;59.126;37.876;2022-11-15T01:03:15;100527.66;;;-0.24;65.67
67842;BME280;54642;59.126;37.876;2022-11-15T01:06:00;100514.44;;;-0.34;65.60
67842;BME280;54642;59.126;37.876;2022-11-15T01:08:44;100525.00;;;-0.27;66.00
67842;BME280;54642;59.126;37.876;2022-11-15T01:11:29;100512.84;;;-0.32;66.13
67842;BME280;54642;59.126;37.876;2022-11-15T01:14:13;100522.81;;;-0.19;65.92
67842;BME280;54642;59.126;37.876;2022-11-15T01:16:58;100516.84;;;-0.20;65.97
67842;BME280;54642;59.126;37.876;2022-11-15T01:19:42;100510.75;;;-0.23;66.10
67842;BME280;54642;59.126;37.876;2022-11-15T01:22:26;100510.00;;;-0.21;66.16
67842;BME280;54642;59.126;37.876;2022-11-15T01:25:11;100498.00;;;-0.23;66.18
67842;BME280;54642;59.126;37.876;2022-11-15T01:27:55;100485.38;;;-0.20;66.36
67842;BME280;54642;59.126;37.876;2022-11-15T01:30:39;100478.97;;;-0.12;65.98
67842;BME280;54642;59.126;37.876;2022-11-15T01:33:24;100485.69;;;0.06;66.19
67842;BME280;54642;59.126;37.876;2022-11-15T01:36:12;100505.47;;;0.11;65.88
67842;BME280;54642;59.126;37.876;2022-11-15T01:38:57;100494.22;;;0.06;65.87
67842;BME280;54642;59.126;37.876;2022-11-15T01:41:42;100477.44;;;-0.08;66.00
67842;BME280;54642;59.126;37.876;2022-11-15T01:47:24;100482.19;;;-0.16;65.80
67842;BME280;54642;59.126;37.876;2022-11-15T01:50:13;100474.41;;;-0.19;65.85
67842;BME280;54642;59.126;37.876;2022-11-15T01:52:59;100463.81;;;-0.28;65.86
67842;BME280;54642;59.126;37.876;2022-11-15T01:55:44;100472.53;;;-0.23;66.05
67842;BME280;54642;59.126;37.876;2022-11-15T01:58:29;100481.75;;;-0.25;65.83
67842;BME280;54642;59.126;37.876;2022-11-15T02:01:13;100475.38;;;-0.35;65.74
67842;BME280;54642;59.126;37.876;2022-11-15T02:04:00;100473.34;;;-0.42;66.11
67842;BME280;54642;59.126;37.876;2022-11-15T02:06:48;100452.50;;;-0.53;66.01
67842;BME280;54642;59.126;37.876;2022-11-15T02:09:35;100475.97;;;-0.41;66.34
67842;BME280;54642;59.126;37.876;2022-11-15T02:12:21;100436.66;;;-0.65;66.30
67842;BME280;54642;59.126;37.876;2022-11-15T02:15:07;100467.19;;;-0.47;66.17
67842;BME280;54642;59.126;37.876;2022-11-15T02:18:11;100391.16;;;-0.95;66.03
67842;BME280;54642;59.126;37.876;2022-11-15T02:30:04;100468.56;;;-0.54;66.18
67842;BME280;54642;59.126;37.876;2022-11-15T02:35:57;100470.91;;;-0.59;66.25
67842;BME280;54642;59.126;37.876;2022-11-15T02:44:35;100443.72;;;-0.78;66.48
67842;BME280;54642;59.126;37.876;2022-11-15T02:47:22;100465.81;;;-0.59;66.36
67842;BME280;54642;59.126;37.876;2022-11-15T02:50:12;100456.56;;;-0.56;66.29
67842;BME280;54642;59.126;37.876;2022-11-15T02:52:59;100462.00;;;-0.49;66.38
67842;BME280;54642;59.126;37.876;2022-11-15T02:55:46;100466.16;;;-0.51;66.60
67842;BME280;54642;59.126;37.876;2022-11-15T02:59:00;100469.56;;;-0.50;66.55
67842;BME280;54642;59.126;37.876;2022-11-15T03:02:05;100455.91;;;-0.52;66.31
67842;BME280;54642;59.126;37.876;2022-11-15T03:05:01;100450.66;;;-0.55;66.39
67842;BME280;54642;59.126;37.876;2022-11-15T03:11:01;100455.69;;;-0.39;66.46
67842;BME280;54642;59.126;37.876;2022-11-15T03:17:14;100441.53;;;-0.32;66.80
67842;BME280;54642;59.126;37.876;2022-11-15T03:20:03;100442.63;;;-0.27;66.58
67842;BME280;54642;59.126;37.876;2022-11-15T03:22:49;100449.53;;;-0.25;66.79
67842;BME280;54642;59.126;37.876;2022-11-15T03:25:40;100437.66;;;-0.24;66.78
67842;BME280;54642;59.126;37.876;2022-11-15T03:28:34;100427.47;;;-0.24;66.75
67842;BME280;54642;59.126;37.876;2022-11-15T03:31:21;100433.59;;;-0.21;66.80
67842;BME280;54642;59.126;37.876;2022-11-15T03:34:41;100400.28;;;-0.45;67.07
67842;BME280;54642;59.126;37.876;2022-11-15T03:37:54;100434.91;;;-0.29;67.33
67842;BME280;54642;59.126;37.876;2022-11-15T03:40:39;100400.59;;;-0.37;67.54
67842;BME280;54642;59.126;37.876;2022-11-15T03:43:39;100426.00;;;-0.19;67.05
67842;BME280;54642;59.126;37.876;2022-11-15T03:46:46;100426.16;;;-0.16;67.46
67842;BME280;54642;59.126;37.876;2022-11-15T03:49:36;100428.69;;;-0.16;67.38
67842;BME280;54642;59.126;37.876;2022-11-15T03:52:23;100430.25;;;-0.20;67.21
67842;BME280;54642;59.126;37.876;2022-11-15T03:55:11;100415.69;;;-0.22;67.97
67842;BME280;54642;59.126;37.876;2022-11-15T03:57:58;100409.97;;;-0.16;67.96
67842;BME280;54642;59.126;37.876;2022-11-15T04:00:43;100412.81;;;-0.10;67.81
67842;BME280;54642;59.126;37.876;2022-11-15T04:03:28;100406.16;;;-0.07;67.75
67842;BME280;54642;59.126;37.876;2022-11-15T04:06:12;100380.56;;;-0.10;67.75
67842;BME280;54642;59.126;37.876;2022-11-15T04:08:56;100390.59;;;0.07;67.56
67842;BME280;54642;59.126;37.876;2022-11-15T04:11:40;100396.16;;;0.17;67.75
67842;BME280;54642;59.126;37.876;2022-11-15T04:14:25;100397.28;;;0.24;67.83
67842;BME280;54642;59.126;37.876;2022-11-15T04:17:09;100387.47;;;0.33;67.99
67842;BME280;54642;59.126;37.876;2022-11-15T04:19:56;100396.81;;;0.54;67.87
67842;BME280;54642;59.126;37.876;2022-11-15T04:23:00;100383.38;;;0.58;67.44
67842;BME280;54642;59.126;37.876;2022-11-15T04:26:18;100345.06;;;0.35;67.91
67842;BME280;54642;59.126;37.876;2022-11-15T04:29:03;100356.13;;;0.57;67.81
67842;BME280;54642;59.126;37.876;2022-11-15T04:32:06;100360.34;;;0.78;67.35
67842;BME280;54642;59.126;37.876;2022-11-15T04:34:51;100352.00;;;0.82;67.35
67842;BME280;54642;59.126;37.876;2022-11-15T04:37:35;100350.22;;;0.79;67.32
67842;BME280;54642;59.126;37.876;2022-11-15T04:40:19;100348.78;;;0.65;67.48
67842;BME280;54642;59.126;37.876;2022-11-15T04:43:04;100347.91;;;0.64;67.73
67842;BME280;54642;59.126;37.876;2022-11-15T04:45:48;100346.66;;;0.75;67.78
67842;BME280;54642;59.126;37.876;2022-11-15T04:48:33;100317.63;;;0.51;67.57
67842;BME280;54642;59.126;37.876;2022-11-15T04:51:20;100351.41;;;0.66;67.78
67842;BME280;54642;59.126;37.876;2022-11-15T04:54:07;100337.97;;;0.49;67.78
67842;BME280;54642;59.126;37.876;2022-11-15T04:56:54;100339.47;;;0.44;68.07
67842;BME280;54642;59.126;37.876;2022-11-15T04:59:41;100340.03;;;0.37;68.09
67842;BME280;54642;59.126;37.876;2022-11-15T05:02:26;100334.13;;;0.38;68.36
67842;BME280;54642;59.126;37.876;2022-11-15T05:05:30;100346.25;;;0.44;68.34
67842;BME280;54642;59.126;37.876;2022-11-15T05:08:15;100360.06;;;0.49;68.38
67842;BME280;54642;59.126;37.876;2022-11-15T05:11:00;100343.06;;;0.49;68.83
67842;BME280;54642;59.126;37.876;2022-11-15T05:13:45;100348.72;;;0.63;68.36
67842;BME280;54642;59.126;37.876;2022-11-15T05:16:29;100351.28;;;0.63;68.34
67842;BME280;54642;59.126;37.876;2022-11-15T05:19:14;100346.53;;;0.72;68.37
67842;BME280;54642;59.126;37.876;2022-11-15T05:21:58;100340.38;;;0.67;68.53
67842;BME280;54642;59.126;37.876;2022-11-15T05:24:43;100345.75;;;0.73;68.49
67842;BME280;54642;59.126;37.876;2022-11-15T05:27:27;100323.97;;;0.61;68.31
67842;BME280;54642;59.126;37.876;2022-11-15T05:30:12;100354.88;;;0.68;68.44
67842;BME280;54642;59.126;37.876;2022-11-15T05:32:56;100319.56;;;0.56;68.48
67842;BME280;54642;59.126;37.876;2022-11-15T05:35:42;100299.53;;;0.45;68.65
67842;BME280;54642;59.126;37.876;2022-11-15T05:38:30;100316.72;;;0.49;68.63
67842;BME280;54642;59.126;37.876;2022-11-15T05:41:17;100340.09;;;0.60;69.20
67842;BME280;54642;59.126;37.876;2022-11-15T05:44:05;100339.25;;;0.61;69.26
67842;BME280;54642;59.126;37.876;2022-11-15T05:46:53;100346.06;;;0.60;69.15
67842;BME280;54642;59.126;37.876;2022-11-15T05:49:41;100337.28;;;0.53;69.53
67842;BME280;54642;59.126;37.876;2022-11-15T05:52:31;100324.16;;;0.44;69.24
67842;BME280;54642;59.126;37.876;2022-11-15T05:55:17;100348.47;;;0.57;69.45
67842;BME280;54642;59.126;37.876;2022-11-15T05:58:02;100340.44;;;0.69;69.33
67842;BME280;54642;59.126;37.876;2022-11-15T06:00:47;100314.53;;;0.58;69.36
67842;BME280;54642;59.126;37.876;2022-11-15T06:03:31;100331.03;;;0.68;69.04
67842;BME280;54642;59.126;37.876;2022-11-15T06:06:16;100329.38;;;0.68;69.30
67842;BME280;54642;59.126;37.876;2022-11-15T06:09:00;100338.47;;;0.62;69.41
67842;BME280;54642;59.126;37.876;2022-11-15T06:11:45;100335.97;;;0.63;69.59
67842;BME280;54642;59.126;37.876;2022-11-15T06:14:29;100341.31;;;0.69;69.49
67842;BME280;54642;59.126;37.876;2022-11-15T06:17:14;100332.94;;;0.72;69.73
67842;BME280;54642;59.126;37.876;2022-11-15T06:19:58;100320.09;;;0.70;69.64
67842;BME280;54642;59.126;37.876;2022-11-15T06:22:43;100269.75;;;0.44;69.44
67842;BME280;54642;59.126;37.876;2022-11-15T06:25:28;100324.63;;;0.78;69.36
67842;BME280;54642;59.126;37.876;2022-11-15T06:28:13;100304.66;;;0.67;69.39
67842;BME280;54642;59.126;37.876;2022-11-15T06:31:08;100310.47;;;0.63;69.94
67842;BME280;54642;59.126;37.876;2022-11-15T06:33:54;100318.84;;;0.61;69.76
67842;BME280;54642;59.126;37.876;2022-11-15T06:36:39;100282.94;;;0.33;70.00
67842;BME280;54642;59.126;37.876;2022-11-15T06:39:23;100338.16;;;0.54;69.98
67842;BME280;54642;59.126;37.876;2022-11-15T06:42:08;100291.34;;;0.31;70.21
67842;BME280;54642;59.126;37.876;2022-11-15T06:44:52;100341.66;;;0.56;69.93
67842;BME280;54642;59.126;37.876;2022-11-15T06:47:44;100321.38;;;0.38;70.05
67842;BME280;54642;59.126;37.876;2022-11-15T06:50:29;100324.03;;;0.41;70.31
67842;BME280;54642;59.126;37.876;2022-11-15T06:53:13;100330.38;;;0.51;70.18
67842;BME280;54642;59.126;37.876;2022-11-15T06:55:59;100311.25;;;0.40;70.36
67842;BME280;54642;59.126;37.876;2022-11-15T06:58:44;100334.72;;;0.53;70.42
67842;BME280;54642;59.126;37.876;2022-11-15T07:01:28;100327.00;;;0.52;70.69
67842;BME280;54642;59.126;37.876;2022-11-15T07:04:13;100317.78;;;0.54;70.57
67842;BME280;54642;59.126;37.876;2022-11-15T07:06:57;100292.88;;;0.48;70.81
67842;BME280;54642;59.126;37.876;2022-11-15T07:09:42;100286.97;;;0.49;70.22
67842;BME280;54642;59.126;37.876;2022-11-15T07:12:27;100291.56;;;0.58;70.77
67842;BME280;54642;59.126;37.876;2022-11-15T07:15:11;100312.69;;;0.76;70.63
67842;BME280;54642;59.126;37.876;2022-11-15T07:17:56;100298.06;;;0.72;70.53
67842;BME280;54642;59.126;37.876;2022-11-15T07:20:43;100293.97;;;0.76;70.45
67842;BME280;54642;59.126;37.876;2022-11-15T07:23:28;100298.25;;;0.77;70.56
67842;BME280;54642;59.126;37.876;2022-11-15T07:26:12;100310.78;;;0.93;70.74
67842;BME280;54642;59.126;37.876;2022-11-15T07:28:57;100305.63;;;0.92;70.55
67842;BME280;54642;59.126;37.876;2022-11-15T07:31:41;100310.72;;;0.92;70.42
67842;BME280;54642;59.126;37.876;2022-11-15T07:34:25;100311.66;;;0.94;70.60
67842;BME280;54642;59.126;37.876;2022-11-15T07:37:10;100308.16;;;0.92;70.55
67842;BME280;54642;59.126;37.876;2022-11-15T07:39:54;100302.31;;;0.94;70.57
67842;BME280;54642;59.126;37.876;2022-11-15T07:42:39;100299.59;;;0.90;70.44
67842;BME280;54642;59.126;37.876;2022-11-15T07:45:44;100301.66;;;1.00;70.31
67842;BME280;54642;59.126;37.876;2022-11-15T07:48:28;100296.56;;;1.00;70.41
67842;BME280;54642;59.126;37.876;2022-11-15T07:51:14;100308.63;;;1.04;70.40
67842;BME280;54642;59.126;37.876;2022-11-15T07:53:59;100300.84;;;1.01;70.56
67842;BME280;54642;59.126;37.876;2022-11-15T07:56:43;100307.66;;;1.01;70.34
67842;BME280;54642;59.126;37.876;2022-11-15T07:59:27;100272.16;;;0.84;70.48
67842;BME280;54642;59.126;37.876;2022-11-15T08:02:12;100313.03;;;1.08;70.57
67842;BME280;54642;59.126;37.876;2022-11-15T08:04:56;100316.63;;;1.13;70.48
67842;BME280;54642;59.126;37.876;2022-11-15T08:07:40;100294.97;;;1.04;70.47
67842;BME280;54642;59.126;37.876;2022-11-15T08:10:26;100308.13;;;1.13;70.69
67842;BME280;54642;59.126;37.876;2022-11-15T08:13:12;100306.25;;;1.09;70.55
67842;BME280;54642;59.126;37.876;2022-11-15T08:16:00;100297.53;;;1.04;70.96
67842;BME280;54642;59.126;37.876;2022-11-15T08:18:45;100308.13;;;1.13;70.97
67842;BME280;54642;59.126;37.876;2022-11-15T08:21:30;100314.41;;;1.23;70.93
67842;BME280;54642;59.126;37.876;2022-11-15T08:24:15;100307.63;;;1.23;70.65
67842;BME280;54642;59.126;37.876;2022-11-15T08:26:59;100301.78;;;1.26;70.62
67842;BME280;54642;59.126;37.876;2022-11-15T08:29:44;100298.19;;;1.21;70.69
67842;BME280;54642;59.126;37.876;2022-11-15T08:32:30;100305.66;;;1.16;70.65
67842;BME280;54642;59.126;37.876;2022-11-15T08:35:16;100296.16;;;1.12;70.83
67842;BME280;54642;59.126;37.876;2022-11-15T08:38:00;100308.50;;;1.24;70.71
67842;BME280;54642;59.126;37.876;2022-11-15T08:40:45;100301.59;;;1.21;70.98
67842;BME280;54642;59.126;37.876;2022-11-15T08:43:30;100280.44;;;1.24;70.87
67842;BME280;54642;59.126;37.876;2022-11-15T08:46:14;100280.63;;;1.30;70.96
67842;BME280;54642;59.126;37.876;2022-11-15T08:48:59;100280.97;;;1.39;70.72
67842;BME280;54642;59.126;37.876;2022-11-15T08:51:43;100288.78;;;1.44;71.09
67842;BME280;54642;59.126;37.876;2022-11-15T08:54:28;100287.03;;;1.43;71.11
67842;BME280;54642;59.126;37.876;2022-11-15T08:57:14;100293.25;;;1.49;70.96
67842;BME280;54642;59.126;37.876;2022-11-15T08:59:59;100284.88;;;1.53;70.71
67842;BME280;54642;59.126;37.876;2022-11-15T09:02:43;100278.41;;;1.63;71.01
67842;BME280;54642;59.126;37.876;2022-11-15T09:05:28;100270.19;;;1.72;70.34
67842;BME280;54642;59.126;37.876;2022-11-15T09:08:12;100271.38;;;1.82;70.23
67842;BME280;54642;59.126;37.876;2022-11-15T09:10:56;100245.16;;;1.62;70.09
67842;BME280;54642;59.126;37.876;2022-11-15T09:13:41;100280.13;;;1.88;70.00
67842;BME280;54642;59.126;37.876;2022-11-15T09:16:26;100274.16;;;1.89;70.09
67842;BME280;54642;59.126;37.876;2022-11-15T09:19:10;100266.50;;;1.89;69.86
67842;BME280;54642;59.126;37.876;2022-11-15T09:21:55;100277.75;;;1.95;69.81
67842;BME280;54642;59.126;37.876;2022-11-15T09:24:39;100281.84;;;1.89;69.52
67842;BME280;54642;59.126;37.876;2022-11-15T09:27:30;100246.38;;;1.73;69.99
67842;BME280;54642;59.126;37.876;2022-11-15T09:30:14;100255.16;;;1.81;69.76
67842;BME280;54642;59.126;37.876;2022-11-15T09:32:58;100247.41;;;1.78;69.91
67842;BME280;54642;59.126;37.876;2022-11-15T09:35:43;100278.66;;;1.97;69.94
67842;BME280;54642;59.126;37.876;2022-11-15T09:38:28;100235.84;;;1.64;70.15
67842;BME280;54642;59.126;37.876;2022-11-15T09:50:31;100263.88;;;1.86;69.96
67842;BME280;54642;59.126;37.876;2022-11-15T09:52:57;100262.13;;;1.85;69.86
67842;BME280;54642;59.126;37.876;2022-11-15T09:55:32;100270.03;;;1.93;70.19
67842;BME280;54642;59.126;37.876;2022-11-15T09:58:09;100268.38;;;1.94;70.02
67842;BME280;54642;59.126;37.876;2022-11-15T10:00:44;100265.88;;;1.97;70.13
67842;BME280;54642;59.126;37.876;2022-11-15T10:03:14;100257.22;;;1.92;69.99
67842;BME280;54642;59.126;37.876;2022-11-15T10:05:49;100248.66;;;1.91;69.97
67842;BME280;54642;59.126;37.876;2022-11-15T10:11:12;100262.53;;;1.98;69.88
67842;BME280;54642;59.126;37.876;2022-11-15T10:13:43;100210.41;;;1.67;69.90
67842;BME280;54642;59.126;37.876;2022-11-15T10:19:16;100248.59;;;1.89;69.89
67842;BME280;54642;59.126;37.876;2022-11-15T10:24:37;100249.28;;;1.84;70.03
67842;BME280;54642;59.126;37.876;2022-11-15T10:27:14;100225.97;;;1.75;69.82
67842;BME280;54642;59.126;37.876;2022-11-15T10:29:48;100256.28;;;1.89;69.88
67842;BME280;54642;59.126;37.876;2022-11-15T10:32:20;100252.00;;;1.88;69.81
67842;BME280;54642;59.126;37.876;2022-11-15T10:34:53;100247.00;;;1.92;69.61
67842;BME280;54642;59.126;37.876;2022-11-15T10:37:30;100214.00;;;1.72;69.69
67842;BME280;54642;59.126;37.876;2022-11-15T10:40:16;100231.44;;;1.85;69.46
67842;BME280;54642;59.126;37.876;2022-11-15T10:42:42;100200.94;;;1.64;69.58
67842;BME280;54642;59.126;37.876;2022-11-15T10:45:24;100237.47;;;1.87;69.52
67842;BME280;54642;59.126;37.876;2022-11-15T10:47:51;100212.13;;;1.68;69.59
67842;BME280;54642;59.126;37.876;2022-11-15T10:50:27;100231.03;;;1.73;69.49
67842;BME280;54642;59.126;37.876;2022-11-15T10:52:53;100196.81;;;1.42;69.41
67842;BME280;54642;59.126;37.876;2022-11-15T10:55:23;100231.47;;;1.60;69.83
67842;BME280;54642;59.126;37.876;2022-11-15T10:58:01;100227.94;;;1.56;69.66
67842;BME280;54642;59.126;37.876;2022-11-15T11:00:36;100227.69;;;1.50;69.73
67842;BME280;54642;59.126;37.876;2022-11-15T11:03:34;100230.06;;;1.44;69.62
67842;BME280;54642;59.126;37.876;2022-11-15T11:06:10;100218.00;;;1.40;69.91
67842;BME280;54642;59.126;37.876;2022-11-15T11:08:37;100220.69;;;1.44;69.90
67842;BME280;54642;59.126;37.876;2022-11-15T11:11:04;100213.03;;;1.44;70.05
67842;BME280;54642;59.126;37.876;2022-11-15T11:13:36;100217.44;;;1.48;69.74
67842;BME280;54642;59.126;37.876;2022-11-15T11:21:17;100216.81;;;1.56;69.75
67842;BME280;54642;59.126;37.876;2022-11-15T11:23:51;100216.81;;;1.56;69.84
67842;BME280;54642;59.126;37.876;2022-11-15T11:29:39;100223.38;;;1.47;69.83
67842;BME280;54642;59.126;37.876;2022-11-15T11:35:14;100217.34;;;1.45;69.73
67842;BME280;54642;59.126;37.876;2022-11-15T11:40:35;100226.72;;;1.46;69.53
67842;BME280;54642;59.126;37.876;2022-11-15T11:43:16;100223.25;;;1.44;69.78
67842;BME280;54642;59.126;37.876;2022-11-15T11:56:28;100213.44;;;1.31;69.86
67842;BME280;54642;59.126;37.876;2022-11-15T11:59:09;100210.13;;;1.33;69.69
67842;BME280;54642;59.126;37.876;2022-11-15T12:01:41;100210.91;;;1.31;69.75
67842;BME280;54642;59.126;37.876;2022-11-15T12:09:59;100202.94;;;1.23;69.84
67842;BME280;54642;59.126;37.876;2022-11-15T12:15:22;100214.91;;;1.24;69.99
67842;BME280;54642;59.126;37.876;2022-11-15T12:17:49;100219.03;;;1.21;70.12
67842;BME280;54642;59.126;37.876;2022-11-15T12:25:31;100212.84;;;1.14;70.30
67842;BME280;54642;59.126;37.876;2022-11-15T12:33:40;100189.09;;;0.92;70.23
67842;BME280;54642;59.126;37.876;2022-11-15T12:36:39;100204.69;;;1.00;70.47
67842;BME280;54642;59.126;37.876;2022-11-15T12:39:11;100215.84;;;1.02;70.61
67842;BME280;54642;59.126;37.876;2022-11-15T12:41:39;100173.34;;;0.80;70.54
67842;BME280;54642;59.126;37.876;2022-11-15T12:44:11;100196.81;;;0.94;70.68
67842;BME280;54642;59.126;37.876;2022-11-15T12:49:41;100208.94;;;1.00;70.93
67842;BME280;54642;59.126;37.876;2022-11-15T12:59:53;100194.47;;;1.00;70.77
67842;BME280;54642;59.126;37.876;2022-11-15T13:02:37;100184.19;;;0.97;70.79
67842;BME280;54642;59.126;37.876;2022-11-15T13:17:50;100180.13;;;1.02;70.73
67842;BME280;54642;59.126;37.876;2022-11-15T13:22:48;100176.03;;;1.07;70.57
67842;BME280;54642;59.126;37.876;2022-11-15T13:25:26;100122.78;;;0.68;70.71
67842;BME280;54642;59.126;37.876;2022-11-15T13:27:56;100134.22;;;0.80;70.58
67842;BME280;54642;59.126;37.876;2022-11-15T13:30:30;100181.94;;;1.06;70.77
67842;BME280;54642;59.126;37.876;2022-11-15T13:33:07;100149.97;;;0.92;70.63
67842;BME280;54642;59.126;37.876;2022-11-15T13:35:40;100182.13;;;1.11;70.75
67842;BME280;54642;59.126;37.876;2022-11-15T13:38:11;100167.34;;;1.02;70.73
67842;BME280;54642;59.126;37.876;2022-11-15T13:40:43;100170.81;;;1.04;70.60
67842;BME280;54642;59.126;37.876;2022-11-15T13:46:07;100183.91;;;1.13;70.74
67842;BME280;54642;59.126;37.876;2022-11-15T13:48:36;100147.56;;;0.97;70.76
67842;BME280;54642;59.126;37.876;2022-11-15T13:51:28;100183.03;;;1.13;70.73
67842;BME280;54642;59.126;37.876;2022-11-15T13:54:03;100153.66;;;1.00;70.79
67842;BME280;54642;59.126;37.876;2022-11-15T13:56:32;100177.03;;;1.11;70.98
67842;BME280;54642;59.126;37.876;2022-11-15T13:59:07;100170.72;;;1.01;70.80
67842;BME280;54642;59.126;37.876;2022-11-15T14:01:33;100173.13;;;0.98;70.65
67842;BME280;54642;59.126;37.876;2022-11-15T14:03:59;100174.19;;;1.03;70.83
67842;BME280;54642;59.126;37.876;2022-11-15T14:06:28;100162.84;;;0.95;70.83
67842;BME280;54642;59.126;37.876;2022-11-15T14:11:37;100151.38;;;0.84;70.83
67842;BME280;54642;59.126;37.876;2022-11-15T14:14:15;100172.09;;;0.93;70.80
67842;BME280;54642;59.126;37.876;2022-11-15T14:16:46;100162.69;;;0.90;71.04
67842;BME280;54642;59.126;37.876;2022-11-15T14:19:33;100171.19;;;0.91;71.23
67842;BME280;54642;59.126;37.876;2022-11-15T14:24:43;100172.03;;;0.90;71.26
67842;BME280;54642;59.126;37.876;2022-11-15T14:27:27;100184.00;;;0.92;71.23
67842;BME280;54642;59.126;37.876;2022-11-15T14:29:54;100180.66;;;0.93;71.19
67842;BME280;54642;59.126;37.876;2022-11-15T14:32:28;100181.63;;;0.97;71.24
67842;BME280;54642;59.126;37.876;2022-11-15T14:34:57;100174.06;;;1.00;71.14
67842;BME280;54642;59.126;37.876;2022-11-15T14:37:26;100167.91;;;0.93;71.09
67842;BME280;54642;59.126;37.876;2022-11-15T14:39:53;100161.03;;;0.92;71.07
67842;BME280;54642;59.126;37.876;2022-11-15T14:42:20;100156.91;;;0.96;70.81
67842;BME280;54642;59.126;37.876;2022-11-15T14:44:47;100161.28;;;0.99;71.24
67842;BME280;54642;59.126;37.876;2022-11-15T14:47:13;100165.84;;;1.07;71.24
67842;BME280;54642;59.126;37.876;2022-11-15T14:49:39;100171.03;;;1.10;71.02
67842;BME280;54642;59.126;37.876;2022-11-15T14:52:23;100160.81;;;1.10;71.02
67842;BME280;54642;59.126;37.876;2022-11-15T14:54:50;100165.84;;;1.07;70.95
67842;BME280;54642;59.126;37.876;2022-11-15T14:57:16;100145.00;;;0.95;70.94
67842;BME280;54642;59.126;37.876;2022-11-15T14:59:41;100161.66;;;1.09;71.03
67842;BME280;54642;59.126;37.876;2022-11-15T15:02:22;100154.00;;;1.09;71.09
67842;BME280;54642;59.126;37.876;2022-11-15T15:04:48;100150.28;;;1.01;71.40
67842;BME280;54642;59.126;37.876;2022-11-15T15:07:15;100160.06;;;1.13;71.44
67842;BME280;54642;59.126;37.876;2022-11-15T15:09:42;100157.28;;;1.07;71.18
67842;BME280;54642;59.126;37.876;2022-11-15T15:12:15;100142.03;;;1.08;71.16
67842;BME280;54642;59.126;37.876;2022-11-15T15:14:42;100148.13;;;1.12;71.23
67842;BME280;54642;59.126;37.876;2022-11-15T15:17:09;100115.34;;;0.99;71.49
67842;BME280;54642;59.126;37.876;2022-11-15T15:19:35;100149.09;;;1.16;70.83
67842;BME280;54642;59.126;37.876;2022-11-15T15:22:01;100147.41;;;1.16;71.09
67842;BME280;54642;59.126;37.876;2022-11-15T15:24:27;100149.94;;;1.16;71.16
67842;BME280;54642;59.126;37.876;2022-11-15T15:26:53;100149.91;;;1.14;71.18
67842;BME280;54642;59.126;37.876;2022-11-15T15:29:19;100144.91;;;1.18;70.96
67842;BME280;54642;59.126;37.876;2022-11-15T15:31:45;100131.94;;;1.11;71.00
67842;BME280;54642;59.126;37.876;2022-11-15T15:34:11;100134.69;;;1.18;71.05
67842;BME280;54642;59.126;37.876;2022-11-15T15:36:37;100135.53;;;1.17;71.06
67842;BME280;54642;59.126;37.876;2022-11-15T15:39:03;100121.50;;;1.05;71.02
67842;BME280;54642;59.126;37.876;2022-11-15T15:41:29;100126.84;;;1.11;70.99
67842;BME280;54642;59.126;37.876;2022-11-15T15:43:55;100126.56;;;1.04;71.26
67842;BME280;54642;59.126;37.876;2022-11-15T15:46:20;100127.31;;;1.01;71.19
67842;BME280;54642;59.126;37.876;2022-11-15T15:48:47;100118.63;;;0.96;71.20
67842;BME280;54642;59.126;37.876;2022-11-15T15:51:12;100130.09;;;1.07;71.22
67842;BME280;54642;59.126;37.876;2022-11-15T15:53:38;100125.97;;;1.11;70.99
67842;BME280;54642;59.126;37.876;2022-11-15T15:56:05;100119.84;;;1.06;70.75
67842;BME280;54642;59.126;37.876;2022-11-15T15:58:34;100103.44;;;0.99;71.05
67842;BME280;54642;59.126;37.876;2022-11-15T16:01:00;100122.66;;;1.13;70.91
67842;BME280;54642;59.126;37.876;2022-11-15T16:03:26;100123.50;;;1.14;71.00